sensor_id;sensor_type;location;lat;lon;timestamp;P1;durP1;ratioP1;P2;durP2;ratioP2
36817;SDS011;22761;51.542;16.450;2023-05-27T00:01:28;12.30;;;4.00;;
36817;SDS011;22761;51.542;16.450;2023-05-27T00:03:57;18.80;;;4.30;;
36817;SDS011;22761;51.542;16.450;2023-05-27T00:06:29;16.50;;;4.60;;
36817;SDS011;22761;51.542;16.450;2023-05-27T00:08:57;11.70;;;3.90;;
36817;SDS011;22761;51.542;16.450;2023-05-27T00:11:29;15.40;;;4.60;;
36817;SDS011;22761;51.542;16.450;2023-05-27T00:14:04;14.30;;;4.00;;
36817;SDS011;22761;51.542;16.450;2023-05-27T00:16:35;17.60;;;4.20;;
36817;SDS011;22761;51.542;16.450;2023-05-27T00:19:09;14.00;;;4.20;;
36817;SDS011;22761;51.542;16.450;2023-05-27T00:21:41;17.00;;;4.40;;
36817;SDS011;22761;51.542;16.450;2023-05-27T00:24:15;15.90;;;3.90;;
36817;SDS011;22761;51.542;16.450;2023-05-27T00:26:48;12.80;;;4.60;;
36817;SDS011;22761;51.542;16.450;2023-05-27T00:29:19;14.30;;;3.70;;
36817;SDS011;22761;51.542;16.450;2023-05-27T00:31:55;14.80;;;4.50;;
36817;SDS011;22761;51.542;16.450;2023-05-27T00:34:27;21.50;;;5.10;;
36817;SDS011;22761;51.542;16.450;2023-05-27T00:36:59;17.50;;;4.60;;
36817;SDS011;22761;51.542;16.450;2023-05-27T00:39:35;16.10;;;4.70;;
36817;SDS011;22761;51.542;16.450;2023-05-27T00:42:07;11.80;;;3.70;;
36817;SDS011;22761;51.542;16.450;2023-05-27T00:44:42;12.70;;;4.10;;
36817;SDS011;22761;51.542;16.450;2023-05-27T00:47:16;14.70;;;4.30;;
36817;SDS011;22761;51.542;16.450;2023-05-27T00:49:45;21.50;;;6.00;;
36817;SDS011;22761;51.542;16.450;2023-05-27T00:52:20;11.90;;;4.60;;
36817;SDS011;22761;51.542;16.450;2023-05-27T00:54:55;12.10;;;4.20;;
36817;SDS011;22761;51.542;16.450;2023-05-27T00:57:30;15.60;;;4.50;;
36817;SDS011;22761;51.542;16.450;2023-05-27T01:00:09;14.50;;;4.10;;
36817;SDS011;22761;51.542;16.450;2023-05-27T01:02:44;13.50;;;4.20;;
36817;SDS011;22761;51.542;16.450;2023-05-27T01:05:20;16.70;;;4.50;;
36817;SDS011;22761;51.542;16.450;2023-05-27T01:16:22;15.20;;;3.60;;
36817;SDS011;22761;51.542;16.450;2023-05-27T01:18:55;14.70;;;4.30;;
36817;SDS011;22761;51.542;16.450;2023-05-27T01:21:30;11.00;;;4.10;;
36817;SDS011;22761;51.542;16.450;2023-05-27T01:24:07;16.80;;;4.30;;
36817;SDS011;22761;51.542;16.450;2023-05-27T01:26:47;12.60;;;3.70;;
36817;SDS011;22761;51.542;16.450;2023-05-27T01:29:28;13.40;;;4.00;;
36817;SDS011;22761;51.542;16.450;2023-05-27T01:32:16;16.70;;;4.70;;
36817;SDS011;22761;51.542;16.450;2023-05-27T01:34:57;14.30;;;4.10;;
36817;SDS011;22761;51.542;16.450;2023-05-27T01:37:35;10.80;;;4.30;;
36817;SDS011;22761;51.542;16.450;2023-05-27T01:40:14;13.60;;;5.00;;
36817;SDS011;22761;51.542;16.450;2023-05-27T01:43:06;13.30;;;4.40;;
36817;SDS011;22761;51.542;16.450;2023-05-27T01:45:45;15.40;;;4.70;;
36817;SDS011;22761;51.542;16.450;2023-05-27T01:48:31;13.10;;;4.20;;
36817;SDS011;22761;51.542;16.450;2023-05-27T01:54:01;19.00;;;5.30;;
36817;SDS011;22761;51.542;16.450;2023-05-27T01:56:38;12.50;;;4.20;;
36817;SDS011;22761;51.542;16.450;2023-05-27T01:59:13;14.80;;;4.40;;
36817;SDS011;22761;51.542;16.450;2023-05-27T02:01:51;15.10;;;4.70;;
36817;SDS011;22761;51.542;16.450;2023-05-27T02:04:34;16.50;;;4.70;;
36817;SDS011;22761;51.542;16.450;2023-05-27T02:07:16;13.50;;;4.50;;
36817;SDS011;22761;51.542;16.450;2023-05-27T02:09:53;15.50;;;5.00;;
36817;SDS011;22761;51.542;16.450;2023-05-27T02:12:33;15.20;;;4.30;;
36817;SDS011;22761;51.542;16.450;2023-05-27T02:15:19;15.20;;;4.50;;
36817;SDS011;22761;51.542;16.450;2023-05-27T02:18:08;12.50;;;4.50;;
36817;SDS011;22761;51.542;16.450;2023-05-27T02:20:58;16.80;;;4.40;;
36817;SDS011;22761;51.542;16.450;2023-05-27T02:23:40;13.70;;;5.00;;
36817;SDS011;22761;51.542;16.450;2023-05-27T02:26:21;15.50;;;4.80;;
36817;SDS011;22761;51.542;16.450;2023-05-27T02:29:02;20.20;;;4.90;;
36817;SDS011;22761;51.542;16.450;2023-05-27T02:31:58;16.90;;;4.80;;
36817;SDS011;22761;51.542;16.450;2023-05-27T02:34:36;14.20;;;4.40;;
36817;SDS011;22761;51.542;16.450;2023-05-27T02:37:25;14.60;;;4.90;;
36817;SDS011;22761;51.542;16.450;2023-05-27T02:40:22;14.40;;;5.00;;
36817;SDS011;22761;51.542;16.450;2023-05-27T02:43:01;18.50;;;4.90;;
36817;SDS011;22761;51.542;16.450;2023-05-27T02:46:02;14.20;;;4.80;;
36817;SDS011;22761;51.542;16.450;2023-05-27T02:48:37;15.40;;;4.60;;
36817;SDS011;22761;51.542;16.450;2023-05-27T02:51:16;20.70;;;5.40;;
36817;SDS011;22761;51.542;16.450;2023-05-27T02:53:52;13.40;;;4.90;;
36817;SDS011;22761;51.542;16.450;2023-05-27T02:56:36;21.10;;;5.20;;
36817;SDS011;22761;51.542;16.450;2023-05-27T02:59:21;16.10;;;5.30;;
36817;SDS011;22761;51.542;16.450;2023-05-27T03:02:00;21.30;;;4.60;;
36817;SDS011;22761;51.542;16.450;2023-05-27T03:04:42;13.00;;;4.90;;
36817;SDS011;22761;51.542;16.450;2023-05-27T03:07:25;17.50;;;4.90;;
36817;SDS011;22761;51.542;16.450;2023-05-27T03:12:56;16.70;;;5.20;;
36817;SDS011;22761;51.542;16.450;2023-05-27T03:18:36;15.70;;;5.40;;
36817;SDS011;22761;51.542;16.450;2023-05-27T03:21:10;15.40;;;4.50;;
36817;SDS011;22761;51.542;16.450;2023-05-27T03:23:55;17.80;;;5.00;;
36817;SDS011;22761;51.542;16.450;2023-05-27T03:26:35;17.70;;;4.90;;
36817;SDS011;22761;51.542;16.450;2023-05-27T03:29:13;18.50;;;5.30;;
36817;SDS011;22761;51.542;16.450;2023-05-27T03:31:58;17.60;;;5.00;;
36817;SDS011;22761;51.542;16.450;2023-05-27T03:34:34;19.10;;;5.10;;
36817;SDS011;22761;51.542;16.450;2023-05-27T03:37:21;16.20;;;5.30;;
36817;SDS011;22761;51.542;16.450;2023-05-27T03:40:12;18.80;;;5.00;;
36817;SDS011;22761;51.542;16.450;2023-05-27T03:42:49;17.50;;;4.90;;
36817;SDS011;22761;51.542;16.450;2023-05-27T03:45:31;17.20;;;5.00;;
36817;SDS011;22761;51.542;16.450;2023-05-27T03:48:18;22.20;;;5.80;;
36817;SDS011;22761;51.542;16.450;2023-05-27T03:51:02;21.90;;;5.40;;
36817;SDS011;22761;51.542;16.450;2023-05-27T03:53:34;18.30;;;5.30;;
36817;SDS011;22761;51.542;16.450;2023-05-27T03:56:23;19.00;;;5.50;;
36817;SDS011;22761;51.542;16.450;2023-05-27T03:58:57;15.50;;;5.00;;
36817;SDS011;22761;51.542;16.450;2023-05-27T04:01:37;17.20;;;6.30;;
36817;SDS011;22761;51.542;16.450;2023-05-27T04:04:22;17.80;;;5.40;;
36817;SDS011;22761;51.542;16.450;2023-05-27T04:07:06;15.30;;;5.80;;
36817;SDS011;22761;51.542;16.450;2023-05-27T04:10:05;18.90;;;5.50;;
36817;SDS011;22761;51.542;16.450;2023-05-27T04:12:45;15.20;;;5.20;;
36817;SDS011;22761;51.542;16.450;2023-05-27T04:15:28;18.90;;;5.30;;
36817;SDS011;22761;51.542;16.450;2023-05-27T04:18:01;15.10;;;5.40;;
36817;SDS011;22761;51.542;16.450;2023-05-27T04:20:42;14.80;;;5.50;;
36817;SDS011;22761;51.542;16.450;2023-05-27T04:23:31;14.10;;;4.70;;
36817;SDS011;22761;51.542;16.450;2023-05-27T04:26:03;19.10;;;5.20;;
36817;SDS011;22761;51.542;16.450;2023-05-27T04:28:39;19.40;;;5.60;;
36817;SDS011;22761;51.542;16.450;2023-05-27T04:31:13;15.20;;;5.40;;
36817;SDS011;22761;51.542;16.450;2023-05-27T04:33:50;15.00;;;5.30;;
36817;SDS011;22761;51.542;16.450;2023-05-27T04:36:19;14.90;;;4.70;;
36817;SDS011;22761;51.542;16.450;2023-05-27T04:39:01;16.80;;;5.70;;
36817;SDS011;22761;51.542;16.450;2023-05-27T04:41:31;15.60;;;5.30;;
36817;SDS011;22761;51.542;16.450;2023-05-27T04:44:21;17.20;;;4.70;;
36817;SDS011;22761;51.542;16.450;2023-05-27T04:46:50;15.60;;;5.00;;
36817;SDS011;22761;51.542;16.450;2023-05-27T04:49:19;15.40;;;4.90;;
36817;SDS011;22761;51.542;16.450;2023-05-27T04:51:48;17.10;;;5.70;;
36817;SDS011;22761;51.542;16.450;2023-05-27T04:54:20;17.40;;;5.50;;
36817;SDS011;22761;51.542;16.450;2023-05-27T04:56:50;16.50;;;5.30;;
36817;SDS011;22761;51.542;16.450;2023-05-27T04:59:30;12.70;;;5.30;;
36817;SDS011;22761;51.542;16.450;2023-05-27T05:02:17;16.10;;;5.50;;
36817;SDS011;22761;51.542;16.450;2023-05-27T05:05:01;15.10;;;5.10;;
36817;SDS011;22761;51.542;16.450;2023-05-27T05:07:31;14.10;;;5.10;;
36817;SDS011;22761;51.542;16.450;2023-05-27T05:10:00;15.00;;;5.20;;
36817;SDS011;22761;51.542;16.450;2023-05-27T05:12:34;18.90;;;5.50;;
36817;SDS011;22761;51.542;16.450;2023-05-27T05:15:04;14.50;;;5.50;;
36817;SDS011;22761;51.542;16.450;2023-05-27T05:17:37;15.70;;;5.70;;
36817;SDS011;22761;51.542;16.450;2023-05-27T05:20:06;15.30;;;5.80;;
36817;SDS011;22761;51.542;16.450;2023-05-27T05:22:37;15.30;;;5.50;;
36817;SDS011;22761;51.542;16.450;2023-05-27T05:25:10;12.60;;;5.40;;
36817;SDS011;22761;51.542;16.450;2023-05-27T05:27:46;17.10;;;5.90;;
36817;SDS011;22761;51.542;16.450;2023-05-27T05:30:14;15.80;;;5.10;;
36817;SDS011;22761;51.542;16.450;2023-05-27T05:32:43;19.60;;;5.80;;
36817;SDS011;22761;51.542;16.450;2023-05-27T05:35:14;16.80;;;6.30;;
36817;SDS011;22761;51.542;16.450;2023-05-27T05:37:46;15.20;;;5.00;;
36817;SDS011;22761;51.542;16.450;2023-05-27T05:40:15;14.60;;;5.90;;
36817;SDS011;22761;51.542;16.450;2023-05-27T05:42:54;18.90;;;6.40;;
36817;SDS011;22761;51.542;16.450;2023-05-27T05:45:23;14.40;;;5.40;;
36817;SDS011;22761;51.542;16.450;2023-05-27T05:47:53;16.70;;;5.50;;
36817;SDS011;22761;51.542;16.450;2023-05-27T05:50:23;16.40;;;5.60;;
36817;SDS011;22761;51.542;16.450;2023-05-27T05:52:52;19.30;;;5.90;;
36817;SDS011;22761;51.542;16.450;2023-05-27T05:55:21;16.90;;;5.30;;
36817;SDS011;22761;51.542;16.450;2023-05-27T05:57:51;13.40;;;5.30;;
36817;SDS011;22761;51.542;16.450;2023-05-27T06:00:19;16.50;;;5.30;;
36817;SDS011;22761;51.542;16.450;2023-05-27T06:02:48;16.70;;;5.60;;
36817;SDS011;22761;51.542;16.450;2023-05-27T06:05:35;13.30;;;5.60;;
36817;SDS011;22761;51.542;16.450;2023-05-27T06:08:04;17.30;;;5.70;;
36817;SDS011;22761;51.542;16.450;2023-05-27T06:10:34;20.90;;;5.20;;
36817;SDS011;22761;51.542;16.450;2023-05-27T06:13:06;14.50;;;5.10;;
36817;SDS011;22761;51.542;16.450;2023-05-27T06:15:34;16.30;;;5.00;;
36817;SDS011;22761;51.542;16.450;2023-05-27T06:18:03;14.40;;;5.40;;
36817;SDS011;22761;51.542;16.450;2023-05-27T06:20:33;13.30;;;5.10;;
36817;SDS011;22761;51.542;16.450;2023-05-27T06:23:02;12.70;;;4.30;;
36817;SDS011;22761;51.542;16.450;2023-05-27T06:25:49;12.90;;;4.50;;
36817;SDS011;22761;51.542;16.450;2023-05-27T06:28:18;15.10;;;4.80;;
36817;SDS011;22761;51.542;16.450;2023-05-27T06:30:47;13.00;;;4.90;;
36817;SDS011;22761;51.542;16.450;2023-05-27T06:33:17;14.70;;;4.70;;
36817;SDS011;22761;51.542;16.450;2023-05-27T06:35:45;10.20;;;3.80;;
36817;SDS011;22761;51.542;16.450;2023-05-27T06:38:14;14.70;;;4.90;;
36817;SDS011;22761;51.542;16.450;2023-05-27T06:40:43;14.30;;;4.30;;
36817;SDS011;22761;51.542;16.450;2023-05-27T06:43:12;12.60;;;4.60;;
36817;SDS011;22761;51.542;16.450;2023-05-27T06:45:55;12.10;;;3.70;;
36817;SDS011;22761;51.542;16.450;2023-05-27T06:48:49;9.80;;;3.30;;
36817;SDS011;22761;51.542;16.450;2023-05-27T06:51:17;8.00;;;3.10;;
36817;SDS011;22761;51.542;16.450;2023-05-27T06:53:46;7.40;;;2.40;;
36817;SDS011;22761;51.542;16.450;2023-05-27T06:56:20;9.20;;;2.50;;
36817;SDS011;22761;51.542;16.450;2023-05-27T06:59:08;11.40;;;2.60;;
36817;SDS011;22761;51.542;16.450;2023-05-27T07:01:36;9.50;;;2.60;;
36817;SDS011;22761;51.542;16.450;2023-05-27T07:04:08;8.90;;;2.60;;
36817;SDS011;22761;51.542;16.450;2023-05-27T07:06:46;7.50;;;2.50;;
36817;SDS011;22761;51.542;16.450;2023-05-27T07:09:14;6.90;;;2.60;;
36817;SDS011;22761;51.542;16.450;2023-05-27T07:11:43;6.70;;;2.30;;
36817;SDS011;22761;51.542;16.450;2023-05-27T07:14:16;7.10;;;2.30;;
36817;SDS011;22761;51.542;16.450;2023-05-27T07:16:44;6.00;;;2.40;;
36817;SDS011;22761;51.542;16.450;2023-05-27T07:19:13;8.20;;;2.80;;
36817;SDS011;22761;51.542;16.450;2023-05-27T07:21:48;9.70;;;3.20;;
36817;SDS011;22761;51.542;16.450;2023-05-27T07:24:19;9.40;;;2.90;;
36817;SDS011;22761;51.542;16.450;2023-05-27T07:26:47;6.40;;;2.30;;
36817;SDS011;22761;51.542;16.450;2023-05-27T07:29:17;12.00;;;3.30;;
36817;SDS011;22761;51.542;16.450;2023-05-27T07:32:05;5.40;;;2.20;;
36817;SDS011;22761;51.542;16.450;2023-05-27T07:34:35;7.70;;;2.50;;
36817;SDS011;22761;51.542;16.450;2023-05-27T07:37:04;8.20;;;2.50;;
36817;SDS011;22761;51.542;16.450;2023-05-27T07:39:32;8.70;;;2.60;;
36817;SDS011;22761;51.542;16.450;2023-05-27T07:42:01;7.40;;;2.50;;
36817;SDS011;22761;51.542;16.450;2023-05-27T07:44:29;10.70;;;2.10;;
36817;SDS011;22761;51.542;16.450;2023-05-27T07:47:01;5.60;;;1.90;;
36817;SDS011;22761;51.542;16.450;2023-05-27T07:49:30;9.30;;;2.90;;
36817;SDS011;22761;51.542;16.450;2023-05-27T07:52:18;4.30;;;1.70;;
36817;SDS011;22761;51.542;16.450;2023-05-27T07:54:47;7.40;;;2.40;;
36817;SDS011;22761;51.542;16.450;2023-05-27T07:57:24;5.30;;;1.90;;
36817;SDS011;22761;51.542;16.450;2023-05-27T07:59:53;9.40;;;2.40;;
36817;SDS011;22761;51.542;16.450;2023-05-27T08:02:23;7.00;;;2.20;;
36817;SDS011;22761;51.542;16.450;2023-05-27T08:04:54;6.80;;;2.50;;
36817;SDS011;22761;51.542;16.450;2023-05-27T08:07:36;6.30;;;2.70;;
36817;SDS011;22761;51.542;16.450;2023-05-27T08:10:31;7.70;;;2.40;;
36817;SDS011;22761;51.542;16.450;2023-05-27T08:13:17;37.90;;;4.30;;
36817;SDS011;22761;51.542;16.450;2023-05-27T08:15:59;8.40;;;2.40;;
36817;SDS011;22761;51.542;16.450;2023-05-27T08:18:43;5.90;;;2.10;;
36817;SDS011;22761;51.542;16.450;2023-05-27T08:21:25;8.70;;;2.30;;
36817;SDS011;22761;51.542;16.450;2023-05-27T08:24:21;10.00;;;2.80;;
36817;SDS011;22761;51.542;16.450;2023-05-27T08:27:02;7.90;;;2.70;;
36817;SDS011;22761;51.542;16.450;2023-05-27T08:29:39;7.00;;;2.80;;
36817;SDS011;22761;51.542;16.450;2023-05-27T08:32:28;7.30;;;2.40;;
36817;SDS011;22761;51.542;16.450;2023-05-27T08:34:57;8.80;;;3.10;;
36817;SDS011;22761;51.542;16.450;2023-05-27T08:37:26;9.00;;;3.10;;
36817;SDS011;22761;51.542;16.450;2023-05-27T08:39:54;9.40;;;3.30;;
36817;SDS011;22761;51.542;16.450;2023-05-27T08:42:40;7.70;;;2.60;;
36817;SDS011;22761;51.542;16.450;2023-05-27T08:45:11;9.70;;;3.50;;
36817;SDS011;22761;51.542;16.450;2023-05-27T08:47:40;10.80;;;3.40;;
36817;SDS011;22761;51.542;16.450;2023-05-27T08:50:15;10.80;;;3.00;;
36817;SDS011;22761;51.542;16.450;2023-05-27T08:52:52;10.40;;;3.10;;
36817;SDS011;22761;51.542;16.450;2023-05-27T08:55:22;11.90;;;4.20;;
36817;SDS011;22761;51.542;16.450;2023-05-27T08:57:57;10.30;;;3.20;;
36817;SDS011;22761;51.542;16.450;2023-05-27T09:00:29;8.10;;;2.80;;
36817;SDS011;22761;51.542;16.450;2023-05-27T09:03:13;9.10;;;3.00;;
36817;SDS011;22761;51.542;16.450;2023-05-27T09:05:42;12.00;;;3.40;;
36817;SDS011;22761;51.542;16.450;2023-05-27T09:08:10;11.60;;;3.20;;
36817;SDS011;22761;51.542;16.450;2023-05-27T09:10:39;13.40;;;3.60;;
36817;SDS011;22761;51.542;16.450;2023-05-27T09:13:08;12.70;;;3.20;;
36817;SDS011;22761;51.542;16.450;2023-05-27T09:15:37;12.30;;;3.40;;
36817;SDS011;22761;51.542;16.450;2023-05-27T09:18:06;14.70;;;4.10;;
36817;SDS011;22761;51.542;16.450;2023-05-27T09:20:35;12.00;;;3.70;;
36817;SDS011;22761;51.542;16.450;2023-05-27T09:23:04;11.60;;;3.60;;
36817;SDS011;22761;51.542;16.450;2023-05-27T09:25:32;10.20;;;3.50;;
36817;SDS011;22761;51.542;16.450;2023-05-27T09:28:03;10.40;;;3.70;;
36817;SDS011;22761;51.542;16.450;2023-05-27T09:30:33;20.40;;;4.90;;
36817;SDS011;22761;51.542;16.450;2023-05-27T09:33:01;12.30;;;3.80;;
36817;SDS011;22761;51.542;16.450;2023-05-27T09:35:36;11.30;;;4.00;;
36817;SDS011;22761;51.542;16.450;2023-05-27T09:38:07;16.50;;;4.50;;
36817;SDS011;22761;51.542;16.450;2023-05-27T09:40:36;11.90;;;4.10;;
36817;SDS011;22761;51.542;16.450;2023-05-27T09:43:06;12.20;;;4.10;;
36817;SDS011;22761;51.542;16.450;2023-05-27T09:45:34;12.90;;;4.10;;
36817;SDS011;22761;51.542;16.450;2023-05-27T09:48:03;11.50;;;3.90;;
36817;SDS011;22761;51.542;16.450;2023-05-27T09:50:32;8.70;;;3.50;;
36817;SDS011;22761;51.542;16.450;2023-05-27T09:53:02;10.80;;;3.50;;
36817;SDS011;22761;51.542;16.450;2023-05-27T09:55:42;11.00;;;4.00;;
36817;SDS011;22761;51.542;16.450;2023-05-27T09:58:11;12.00;;;3.50;;
36817;SDS011;22761;51.542;16.450;2023-05-27T10:00:40;9.50;;;3.30;;
36817;SDS011;22761;51.542;16.450;2023-05-27T10:03:09;10.80;;;3.80;;
36817;SDS011;22761;51.542;16.450;2023-05-27T10:05:38;11.90;;;3.40;;
36817;SDS011;22761;51.542;16.450;2023-05-27T10:08:08;11.40;;;3.80;;
36817;SDS011;22761;51.542;16.450;2023-05-27T10:10:51;10.40;;;3.70;;
36817;SDS011;22761;51.542;16.450;2023-05-27T10:13:21;11.40;;;3.70;;
36817;SDS011;22761;51.542;16.450;2023-05-27T10:15:51;8.30;;;3.30;;
36817;SDS011;22761;51.542;16.450;2023-05-27T10:18:27;9.20;;;3.40;;
36817;SDS011;22761;51.542;16.450;2023-05-27T10:20:59;11.00;;;3.30;;
36817;SDS011;22761;51.542;16.450;2023-05-27T10:23:31;10.50;;;3.50;;
36817;SDS011;22761;51.542;16.450;2023-05-27T10:26:07;11.00;;;3.60;;
36817;SDS011;22761;51.542;16.450;2023-05-27T10:28:36;10.30;;;4.10;;
36817;SDS011;22761;51.542;16.450;2023-05-27T10:31:08;9.70;;;3.30;;
36817;SDS011;22761;51.542;16.450;2023-05-27T10:36:15;8.80;;;3.30;;
36817;SDS011;22761;51.542;16.450;2023-05-27T10:38:55;9.90;;;3.90;;
36817;SDS011;22761;51.542;16.450;2023-05-27T10:41:28;9.80;;;3.00;;
36817;SDS011;22761;51.542;16.450;2023-05-27T10:44:04;7.90;;;3.20;;
36817;SDS011;22761;51.542;16.450;2023-05-27T10:46:42;9.60;;;3.10;;
36817;SDS011;22761;51.542;16.450;2023-05-27T10:49:55;10.00;;;3.30;;
36817;SDS011;22761;51.542;16.450;2023-05-27T10:54:41;7.90;;;3.20;;
36817;SDS011;22761;51.542;16.450;2023-05-27T10:57:11;10.30;;;3.60;;
36817;SDS011;22761;51.542;16.450;2023-05-27T10:59:48;8.20;;;3.30;;
36817;SDS011;22761;51.542;16.450;2023-05-27T11:02:28;9.40;;;3.00;;
36817;SDS011;22761;51.542;16.450;2023-05-27T11:05:10;6.20;;;2.70;;
36817;SDS011;22761;51.542;16.450;2023-05-27T11:07:39;7.80;;;2.80;;
36817;SDS011;22761;51.542;16.450;2023-05-27T11:10:08;6.60;;;2.70;;
36817;SDS011;22761;51.542;16.450;2023-05-27T11:12:37;6.40;;;2.70;;
36817;SDS011;22761;51.542;16.450;2023-05-27T11:15:05;6.60;;;2.60;;
36817;SDS011;22761;51.542;16.450;2023-05-27T11:17:34;7.50;;;2.70;;
36817;SDS011;22761;51.542;16.450;2023-05-27T11:20:03;7.70;;;2.90;;
36817;SDS011;22761;51.542;16.450;2023-05-27T11:22:35;7.60;;;3.00;;
36817;SDS011;22761;51.542;16.450;2023-05-27T11:32:40;7.40;;;2.90;;
36817;SDS011;22761;51.542;16.450;2023-05-27T11:35:17;6.80;;;2.40;;
36817;SDS011;22761;51.542;16.450;2023-05-27T11:37:49;5.40;;;2.60;;
36817;SDS011;22761;51.542;16.450;2023-05-27T11:40:19;7.50;;;2.70;;
36817;SDS011;22761;51.542;16.450;2023-05-27T11:42:48;8.70;;;2.80;;
36817;SDS011;22761;51.542;16.450;2023-05-27T11:45:18;6.10;;;2.60;;
36817;SDS011;22761;51.542;16.450;2023-05-27T11:47:48;6.20;;;2.50;;
36817;SDS011;22761;51.542;16.450;2023-05-27T11:50:22;5.80;;;2.60;;
36817;SDS011;22761;51.542;16.450;2023-05-27T11:52:51;5.40;;;2.40;;
36817;SDS011;22761;51.542;16.450;2023-05-27T11:55:21;7.90;;;2.40;;
36817;SDS011;22761;51.542;16.450;2023-05-27T11:57:52;6.90;;;2.70;;
36817;SDS011;22761;51.542;16.450;2023-05-27T12:00:20;6.10;;;2.40;;
36817;SDS011;22761;51.542;16.450;2023-05-27T12:02:49;6.30;;;2.80;;
36817;SDS011;22761;51.542;16.450;2023-05-27T12:08:01;6.00;;;2.70;;
36817;SDS011;22761;51.542;16.450;2023-05-27T12:10:31;7.50;;;2.60;;
36817;SDS011;22761;51.542;16.450;2023-05-27T12:13:05;7.20;;;1.90;;
36817;SDS011;22761;51.542;16.450;2023-05-27T12:15:34;5.40;;;2.20;;
36817;SDS011;22761;51.542;16.450;2023-05-27T12:18:03;5.10;;;2.10;;
36817;SDS011;22761;51.542;16.450;2023-05-27T12:20:31;3.90;;;2.00;;
36817;SDS011;22761;51.542;16.450;2023-05-27T12:23:00;5.70;;;2.10;;
36817;SDS011;22761;51.542;16.450;2023-05-27T12:25:28;7.20;;;2.20;;
36817;SDS011;22761;51.542;16.450;2023-05-27T12:27:57;5.90;;;2.60;;
36817;SDS011;22761;51.542;16.450;2023-05-27T12:30:25;5.00;;;2.20;;
36817;SDS011;22761;51.542;16.450;2023-05-27T12:32:53;5.80;;;2.20;;
36817;SDS011;22761;51.542;16.450;2023-05-27T12:35:22;4.20;;;1.90;;
36817;SDS011;22761;51.542;16.450;2023-05-27T12:37:51;5.20;;;2.00;;
36817;SDS011;22761;51.542;16.450;2023-05-27T12:42:48;6.10;;;2.00;;
36817;SDS011;22761;51.542;16.450;2023-05-27T12:45:16;3.60;;;1.70;;
36817;SDS011;22761;51.542;16.450;2023-05-27T12:47:45;5.20;;;2.20;;
36817;SDS011;22761;51.542;16.450;2023-05-27T12:50:14;5.70;;;2.00;;
36817;SDS011;22761;51.542;16.450;2023-05-27T12:52:43;3.50;;;2.30;;
36817;SDS011;22761;51.542;16.450;2023-05-27T12:55:16;5.30;;;2.00;;
36817;SDS011;22761;51.542;16.450;2023-05-27T12:57:48;6.50;;;2.50;;
36817;SDS011;22761;51.542;16.450;2023-05-27T13:00:19;6.10;;;2.10;;
36817;SDS011;22761;51.542;16.450;2023-05-27T13:02:49;3.80;;;2.10;;
36817;SDS011;22761;51.542;16.450;2023-05-27T13:05:19;5.90;;;2.30;;
36817;SDS011;22761;51.542;16.450;2023-05-27T13:07:54;3.80;;;2.00;;
36817;SDS011;22761;51.542;16.450;2023-05-27T13:10:27;7.00;;;2.40;;
36817;SDS011;22761;51.542;16.450;2023-05-27T13:12:57;4.70;;;2.00;;
36817;SDS011;22761;51.542;16.450;2023-05-27T13:15:26;4.30;;;2.00;;
36817;SDS011;22761;51.542;16.450;2023-05-27T13:17:55;5.40;;;2.20;;
36817;SDS011;22761;51.542;16.450;2023-05-27T13:22:52;8.40;;;2.20;;
36817;SDS011;22761;51.542;16.450;2023-05-27T13:25:21;6.00;;;1.90;;
36817;SDS011;22761;51.542;16.450;2023-05-27T13:27:49;5.70;;;2.30;;
36817;SDS011;22761;51.542;16.450;2023-05-27T13:30:19;6.20;;;2.10;;
36817;SDS011;22761;51.542;16.450;2023-05-27T13:32:48;4.10;;;2.00;;
36817;SDS011;22761;51.542;16.450;2023-05-27T13:35:17;9.10;;;2.60;;
36817;SDS011;22761;51.542;16.450;2023-05-27T13:37:45;5.80;;;2.20;;
36817;SDS011;22761;51.542;16.450;2023-05-27T13:40:14;6.20;;;2.30;;
36817;SDS011;22761;51.542;16.450;2023-05-27T13:42:42;7.40;;;2.20;;
36817;SDS011;22761;51.542;16.450;2023-05-27T13:45:11;5.30;;;2.30;;
36817;SDS011;22761;51.542;16.450;2023-05-27T13:47:40;5.50;;;1.80;;
36817;SDS011;22761;51.542;16.450;2023-05-27T13:50:10;7.20;;;2.00;;
36817;SDS011;22761;51.542;16.450;2023-05-27T13:52:39;4.60;;;2.00;;
36817;SDS011;22761;51.542;16.450;2023-05-27T13:55:08;3.80;;;2.00;;
36817;SDS011;22761;51.542;16.450;2023-05-27T13:57:37;5.40;;;2.00;;
36817;SDS011;22761;51.542;16.450;2023-05-27T14:00:06;4.20;;;1.70;;
36817;SDS011;22761;51.542;16.450;2023-05-27T14:02:35;4.50;;;2.00;;
36817;SDS011;22761;51.542;16.450;2023-05-27T14:05:04;4.40;;;1.40;;
36817;SDS011;22761;51.542;16.450;2023-05-27T14:10:00;5.50;;;1.90;;
36817;SDS011;22761;51.542;16.450;2023-05-27T14:12:29;4.20;;;2.00;;
36817;SDS011;22761;51.542;16.450;2023-05-27T14:14:57;5.20;;;2.10;;
36817;SDS011;22761;51.542;16.450;2023-05-27T14:17:25;6.30;;;2.10;;
36817;SDS011;22761;51.542;16.450;2023-05-27T14:19:54;4.20;;;2.10;;
36817;SDS011;22761;51.542;16.450;2023-05-27T14:22:23;3.50;;;1.90;;
36817;SDS011;22761;51.542;16.450;2023-05-27T14:24:52;4.80;;;2.00;;
36817;SDS011;22761;51.542;16.450;2023-05-27T14:27:20;5.10;;;2.00;;
36817;SDS011;22761;51.542;16.450;2023-05-27T14:29:49;8.00;;;3.80;;
36817;SDS011;22761;51.542;16.450;2023-05-27T14:32:17;7.10;;;2.50;;
36817;SDS011;22761;51.542;16.450;2023-05-27T14:34:45;3.80;;;1.70;;
36817;SDS011;22761;51.542;16.450;2023-05-27T14:37:14;3.60;;;1.80;;
36817;SDS011;22761;51.542;16.450;2023-05-27T14:39:42;4.10;;;1.90;;
36817;SDS011;22761;51.542;16.450;2023-05-27T14:42:11;4.80;;;2.20;;
36817;SDS011;22761;51.542;16.450;2023-05-27T14:44:39;4.30;;;1.90;;
36817;SDS011;22761;51.542;16.450;2023-05-27T14:47:07;4.30;;;2.00;;
36817;SDS011;22761;51.542;16.450;2023-05-27T14:49:36;4.20;;;1.90;;
36817;SDS011;22761;51.542;16.450;2023-05-27T14:52:05;5.90;;;2.20;;
36817;SDS011;22761;51.542;16.450;2023-05-27T14:54:33;4.70;;;1.90;;
36817;SDS011;22761;51.542;16.450;2023-05-27T14:57:02;5.60;;;1.90;;
36817;SDS011;22761;51.542;16.450;2023-05-27T14:59:30;5.10;;;1.80;;
36817;SDS011;22761;51.542;16.450;2023-05-27T15:01:59;4.70;;;1.90;;
36817;SDS011;22761;51.542;16.450;2023-05-27T15:04:27;3.70;;;1.70;;
36817;SDS011;22761;51.542;16.450;2023-05-27T15:06:55;3.70;;;1.70;;
36817;SDS011;22761;51.542;16.450;2023-05-27T15:09:23;2.40;;;1.60;;
36817;SDS011;22761;51.542;16.450;2023-05-27T15:11:52;2.80;;;1.20;;
36817;SDS011;22761;51.542;16.450;2023-05-27T15:14:20;3.90;;;1.60;;
36817;SDS011;22761;51.542;16.450;2023-05-27T15:16:48;2.40;;;1.30;;
36817;SDS011;22761;51.542;16.450;2023-05-27T15:19:17;4.30;;;1.60;;
36817;SDS011;22761;51.542;16.450;2023-05-27T15:21:45;4.30;;;1.60;;
36817;SDS011;22761;51.542;16.450;2023-05-27T15:24:13;4.00;;;1.40;;
36817;SDS011;22761;51.542;16.450;2023-05-27T15:26:42;3.00;;;1.40;;
36817;SDS011;22761;51.542;16.450;2023-05-27T15:29:10;6.00;;;2.10;;
36817;SDS011;22761;51.542;16.450;2023-05-27T15:31:38;4.70;;;1.80;;
36817;SDS011;22761;51.542;16.450;2023-05-27T15:34:07;3.10;;;1.40;;
36817;SDS011;22761;51.542;16.450;2023-05-27T15:36:35;3.70;;;1.50;;
36817;SDS011;22761;51.542;16.450;2023-05-27T15:39:04;4.00;;;1.70;;
36817;SDS011;22761;51.542;16.450;2023-05-27T15:41:34;4.00;;;1.50;;
36817;SDS011;22761;51.542;16.450;2023-05-27T15:44:02;3.50;;;1.60;;
36817;SDS011;22761;51.542;16.450;2023-05-27T15:46:30;4.80;;;1.60;;